sensor_id;sensor_type;location;lat;lon;timestamp;P1;durP1;ratioP1;P2;durP2;ratioP2
10120;SDS011;5100;45.176;5.714;2022-07-23T00:00:58;7.57;;;6.47;;
10120;SDS011;5100;45.176;5.714;2022-07-23T00:03:24;6.55;;;5.87;;
10120;SDS011;5100;45.176;5.714;2022-07-23T00:05:50;5.87;;;5.37;;
10120;SDS011;5100;45.176;5.714;2022-07-23T00:08:16;6.03;;;5.53;;
10120;SDS011;5100;45.176;5.714;2022-07-23T00:10:43;6.87;;;5.65;;
10120;SDS011;5100;45.176;5.714;2022-07-23T00:13:09;10.93;;;5.95;;
10120;SDS011;5100;45.176;5.714;2022-07-23T00:15:35;8.00;;;5.78;;
10120;SDS011;5100;45.176;5.714;2022-07-23T00:18:01;5.40;;;4.93;;
10120;SDS011;5100;45.176;5.714;2022-07-23T00:20:27;6.90;;;5.00;;
10120;SDS011;5100;45.176;5.714;2022-07-23T00:22:54;7.90;;;5.00;;
10120;SDS011;5100;45.176;5.714;2022-07-23T00:25:21;5.78;;;5.12;;
10120;SDS011;5100;45.176;5.714;2022-07-23T00:27:50;7.85;;;4.93;;
10120;SDS011;5100;45.176;5.714;2022-07-23T00:30:16;6.00;;;4.45;;
10120;SDS011;5100;45.176;5.714;2022-07-23T00:32:48;6.25;;;4.62;;
10120;SDS011;5100;45.176;5.714;2022-07-23T00:35:16;6.95;;;4.60;;
10120;SDS011;5100;45.176;5.714;2022-07-23T00:37:46;6.97;;;4.60;;
10120;SDS011;5100;45.176;5.714;2022-07-23T00:40:12;4.47;;;4.07;;
10120;SDS011;5100;45.176;5.714;2022-07-23T00:42:39;6.50;;;4.20;;
10120;SDS011;5100;45.176;5.714;2022-07-23T00:45:05;5.20;;;4.18;;
10120;SDS011;5100;45.176;5.714;2022-07-23T00:47:32;6.57;;;4.18;;
10120;SDS011;5100;45.176;5.714;2022-07-23T00:49:59;4.85;;;4.22;;
10120;SDS011;5100;45.176;5.714;2022-07-23T00:52:25;5.82;;;4.62;;
10120;SDS011;5100;45.176;5.714;2022-07-23T00:54:51;5.57;;;4.07;;
10120;SDS011;5100;45.176;5.714;2022-07-23T00:57:18;5.22;;;4.53;;
10120;SDS011;5100;45.176;5.714;2022-07-23T00:59:44;4.37;;;3.97;;
10120;SDS011;5100;45.176;5.714;2022-07-23T01:02:11;4.68;;;4.35;;
10120;SDS011;5100;45.176;5.714;2022-07-23T01:04:37;6.47;;;4.75;;
10120;SDS011;5100;45.176;5.714;2022-07-23T01:07:04;5.28;;;4.37;;
10120;SDS011;5100;45.176;5.714;2022-07-23T01:09:30;5.45;;;4.00;;
10120;SDS011;5100;45.176;5.714;2022-07-23T01:11:56;9.98;;;3.90;;
10120;SDS011;5100;45.176;5.714;2022-07-23T01:14:24;4.40;;;4.07;;
10120;SDS011;5100;45.176;5.714;2022-07-23T01:16:50;5.65;;;4.12;;
10120;SDS011;5100;45.176;5.714;2022-07-23T01:19:16;4.82;;;4.00;;
10120;SDS011;5100;45.176;5.714;2022-07-23T01:21:45;4.40;;;4.00;;
10120;SDS011;5100;45.176;5.714;2022-07-23T01:24:13;8.23;;;4.50;;
10120;SDS011;5100;45.176;5.714;2022-07-23T01:26:42;5.50;;;4.40;;
10120;SDS011;5100;45.176;5.714;2022-07-23T01:29:12;6.37;;;4.22;;
10120;SDS011;5100;45.176;5.714;2022-07-23T01:31:39;5.12;;;4.62;;
10120;SDS011;5100;45.176;5.714;2022-07-23T01:34:06;4.95;;;3.70;;
10120;SDS011;5100;45.176;5.714;2022-07-23T01:36:33;5.12;;;4.12;;
10120;SDS011;5100;45.176;5.714;2022-07-23T01:39:00;5.30;;;4.32;;
10120;SDS011;5100;45.176;5.714;2022-07-23T01:41:26;5.53;;;4.37;;
10120;SDS011;5100;45.176;5.714;2022-07-23T01:43:53;5.95;;;4.40;;
10120;SDS011;5100;45.176;5.714;2022-07-23T01:46:19;6.20;;;4.07;;
10120;SDS011;5100;45.176;5.714;2022-07-23T01:48:46;5.68;;;4.37;;
10120;SDS011;5100;45.176;5.714;2022-07-23T01:51:13;6.03;;;4.95;;
10120;SDS011;5100;45.176;5.714;2022-07-23T01:53:39;5.32;;;4.75;;
10120;SDS011;5100;45.176;5.714;2022-07-23T01:56:05;5.97;;;5.30;;
10120;SDS011;5100;45.176;5.714;2022-07-23T01:58:33;5.45;;;5.05;;
10120;SDS011;5100;45.176;5.714;2022-07-23T02:00:59;6.45;;;5.85;;
10120;SDS011;5100;45.176;5.714;2022-07-23T02:03:25;6.68;;;5.95;;
10120;SDS011;5100;45.176;5.714;2022-07-23T02:05:54;7.57;;;6.87;;
10120;SDS011;5100;45.176;5.714;2022-07-23T02:08:21;6.10;;;5.60;;
10120;SDS011;5100;45.176;5.714;2022-07-23T02:10:47;8.65;;;6.87;;
10120;SDS011;5100;45.176;5.714;2022-07-23T02:13:16;7.45;;;6.22;;
10120;SDS011;5100;45.176;5.714;2022-07-23T02:15:43;7.30;;;6.57;;
10120;SDS011;5100;45.176;5.714;2022-07-23T02:18:10;8.00;;;6.68;;
10120;SDS011;5100;45.176;5.714;2022-07-23T02:20:37;7.30;;;6.62;;
10120;SDS011;5100;45.176;5.714;2022-07-23T02:23:07;7.78;;;5.72;;
10120;SDS011;5100;45.176;5.714;2022-07-23T02:25:33;8.93;;;4.72;;
10120;SDS011;5100;45.176;5.714;2022-07-23T02:28:06;9.20;;;4.78;;
10120;SDS011;5100;45.176;5.714;2022-07-23T02:30:32;6.32;;;4.90;;
10120;SDS011;5100;45.176;5.714;2022-07-23T02:32:59;5.65;;;4.57;;
10120;SDS011;5100;45.176;5.714;2022-07-23T02:35:29;7.55;;;4.55;;
10120;SDS011;5100;45.176;5.714;2022-07-23T02:37:56;5.15;;;4.50;;
10120;SDS011;5100;45.176;5.714;2022-07-23T02:40:22;8.57;;;4.78;;
10120;SDS011;5100;45.176;5.714;2022-07-23T02:42:48;4.82;;;4.22;;
10120;SDS011;5100;45.176;5.714;2022-07-23T02:45:14;4.85;;;4.45;;
10120;SDS011;5100;45.176;5.714;2022-07-23T02:47:40;8.48;;;5.18;;
10120;SDS011;5100;45.176;5.714;2022-07-23T02:50:08;7.18;;;4.80;;
10120;SDS011;5100;45.176;5.714;2022-07-23T02:52:34;5.78;;;4.80;;
10120;SDS011;5100;45.176;5.714;2022-07-23T02:55:01;5.32;;;4.53;;
10120;SDS011;5100;45.176;5.714;2022-07-23T02:59:56;6.12;;;4.53;;
10120;SDS011;5100;45.176;5.714;2022-07-23T03:02:22;6.90;;;5.07;;
10120;SDS011;5100;45.176;5.714;2022-07-23T03:04:50;5.97;;;4.62;;
10120;SDS011;5100;45.176;5.714;2022-07-23T03:07:16;6.35;;;4.90;;
10120;SDS011;5100;45.176;5.714;2022-07-23T03:09:43;6.30;;;4.35;;
10120;SDS011;5100;45.176;5.714;2022-07-23T03:12:09;4.97;;;4.32;;
10120;SDS011;5100;45.176;5.714;2022-07-23T03:14:35;5.15;;;4.40;;
10120;SDS011;5100;45.176;5.714;2022-07-23T03:17:01;5.55;;;4.72;;
10120;SDS011;5100;45.176;5.714;2022-07-23T03:19:28;6.78;;;4.45;;
10120;SDS011;5100;45.176;5.714;2022-07-23T03:21:53;6.87;;;4.80;;
10120;SDS011;5100;45.176;5.714;2022-07-23T03:24:20;8.10;;;5.10;;
10120;SDS011;5100;45.176;5.714;2022-07-23T03:26:53;5.90;;;4.60;;
10120;SDS011;5100;45.176;5.714;2022-07-23T03:29:19;8.93;;;5.18;;
10120;SDS011;5100;45.176;5.714;2022-07-23T03:31:45;5.32;;;4.50;;
10120;SDS011;5100;45.176;5.714;2022-07-23T03:34:12;6.25;;;4.53;;
10120;SDS011;5100;45.176;5.714;2022-07-23T03:36:38;6.35;;;4.55;;
10120;SDS011;5100;45.176;5.714;2022-07-23T03:39:05;5.20;;;4.70;;
10120;SDS011;5100;45.176;5.714;2022-07-23T03:41:31;6.15;;;4.75;;
10120;SDS011;5100;45.176;5.714;2022-07-23T03:43:58;4.90;;;4.45;;
10120;SDS011;5100;45.176;5.714;2022-07-23T03:46:25;5.50;;;4.50;;
10120;SDS011;5100;45.176;5.714;2022-07-23T03:48:51;6.80;;;4.72;;
10120;SDS011;5100;45.176;5.714;2022-07-23T03:51:17;5.18;;;4.68;;
10120;SDS011;5100;45.176;5.714;2022-07-23T03:53:43;7.70;;;5.53;;
10120;SDS011;5100;45.176;5.714;2022-07-23T03:56:09;6.05;;;5.18;;
10120;SDS011;5100;45.176;5.714;2022-07-23T03:58:35;5.97;;;4.65;;
10120;SDS011;5100;45.176;5.714;2022-07-23T04:01:01;7.90;;;4.57;;
10120;SDS011;5100;45.176;5.714;2022-07-23T04:03:27;7.03;;;4.60;;
10120;SDS011;5100;45.176;5.714;2022-07-23T04:05:53;5.45;;;4.68;;
10120;SDS011;5100;45.176;5.714;2022-07-23T04:08:20;6.47;;;5.07;;
10120;SDS011;5100;45.176;5.714;2022-07-23T04:10:47;6.18;;;4.78;;
10120;SDS011;5100;45.176;5.714;2022-07-23T04:13:13;6.90;;;5.20;;
10120;SDS011;5100;45.176;5.714;2022-07-23T04:15:39;5.72;;;5.22;;
10120;SDS011;5100;45.176;5.714;2022-07-23T04:18:05;8.48;;;5.78;;
10120;SDS011;5100;45.176;5.714;2022-07-23T04:20:32;7.82;;;5.50;;
10120;SDS011;5100;45.176;5.714;2022-07-23T04:22:58;5.68;;;5.10;;
10120;SDS011;5100;45.176;5.714;2022-07-23T04:25:25;5.70;;;5.20;;
10120;SDS011;5100;45.176;5.714;2022-07-23T04:27:51;6.75;;;5.35;;
10120;SDS011;5100;45.176;5.714;2022-07-23T04:30:17;9.35;;;5.50;;
10120;SDS011;5100;45.176;5.714;2022-07-23T04:32:43;5.95;;;5.40;;
10120;SDS011;5100;45.176;5.714;2022-07-23T04:35:11;6.37;;;4.95;;
10120;SDS011;5100;45.176;5.714;2022-07-23T04:37:37;5.95;;;5.35;;
10120;SDS011;5100;45.176;5.714;2022-07-23T04:40:04;7.25;;;5.60;;
10120;SDS011;5100;45.176;5.714;2022-07-23T04:42:30;6.12;;;5.37;;
10120;SDS011;5100;45.176;5.714;2022-07-23T04:44:56;7.85;;;5.57;;
10120;SDS011;5100;45.176;5.714;2022-07-23T04:47:23;6.35;;;5.75;;
10120;SDS011;5100;45.176;5.714;2022-07-23T04:49:49;7.05;;;5.40;;
10120;SDS011;5100;45.176;5.714;2022-07-23T04:52:15;6.68;;;5.47;;
10120;SDS011;5100;45.176;5.714;2022-07-23T04:54:41;6.53;;;5.30;;
10120;SDS011;5100;45.176;5.714;2022-07-23T04:57:07;9.40;;;6.07;;
10120;SDS011;5100;45.176;5.714;2022-07-23T04:59:33;5.87;;;5.37;;
10120;SDS011;5100;45.176;5.714;2022-07-23T05:02:00;7.68;;;5.70;;
10120;SDS011;5100;45.176;5.714;2022-07-23T05:04:26;7.60;;;5.80;;
10120;SDS011;5100;45.176;5.714;2022-07-23T05:06:52;10.35;;;5.97;;
10120;SDS011;5100;45.176;5.714;2022-07-23T05:09:18;6.97;;;5.60;;
10120;SDS011;5100;45.176;5.714;2022-07-23T05:11:45;6.62;;;5.78;;
10120;SDS011;5100;45.176;5.714;2022-07-23T05:14:11;6.95;;;5.90;;
10120;SDS011;5100;45.176;5.714;2022-07-23T05:16:38;7.97;;;5.37;;
10120;SDS011;5100;45.176;5.714;2022-07-23T05:19:05;6.07;;;5.22;;
10120;SDS011;5100;45.176;5.714;2022-07-23T05:21:33;6.65;;;5.93;;
10120;SDS011;5100;45.176;5.714;2022-07-23T05:23:59;7.05;;;6.35;;
10120;SDS011;5100;45.176;5.714;2022-07-23T05:26:26;7.35;;;5.95;;
10120;SDS011;5100;45.176;5.714;2022-07-23T05:28:52;7.25;;;6.60;;
10120;SDS011;5100;45.176;5.714;2022-07-23T05:31:18;6.32;;;5.72;;
10120;SDS011;5100;45.176;5.714;2022-07-23T05:33:45;9.60;;;6.35;;
10120;SDS011;5100;45.176;5.714;2022-07-23T05:36:11;8.63;;;6.45;;
10120;SDS011;5100;45.176;5.714;2022-07-23T05:38:39;7.78;;;6.55;;
10120;SDS011;5100;45.176;5.714;2022-07-23T05:41:05;8.43;;;7.45;;
10120;SDS011;5100;45.176;5.714;2022-07-23T05:43:31;7.55;;;6.80;;
10120;SDS011;5100;45.176;5.714;2022-07-23T05:45:58;8.40;;;6.85;;
10120;SDS011;5100;45.176;5.714;2022-07-23T05:48:24;7.65;;;6.93;;
10120;SDS011;5100;45.176;5.714;2022-07-23T05:50:51;7.97;;;6.53;;
10120;SDS011;5100;45.176;5.714;2022-07-23T05:53:18;7.53;;;6.37;;
10120;SDS011;5100;45.176;5.714;2022-07-23T05:55:45;9.68;;;6.78;;
10120;SDS011;5100;45.176;5.714;2022-07-23T05:58:11;8.75;;;6.80;;
10120;SDS011;5100;45.176;5.714;2022-07-23T06:00:38;6.87;;;6.28;;
10120;SDS011;5100;45.176;5.714;2022-07-23T06:03:04;7.12;;;6.25;;
10120;SDS011;5100;45.176;5.714;2022-07-23T06:05:32;6.62;;;6.03;;
10120;SDS011;5100;45.176;5.714;2022-07-23T06:07:58;6.07;;;5.57;;
10120;SDS011;5100;45.176;5.714;2022-07-23T06:10:24;7.03;;;6.32;;
10120;SDS011;5100;45.176;5.714;2022-07-23T06:12:50;12.73;;;5.95;;
10120;SDS011;5100;45.176;5.714;2022-07-23T06:15:17;6.82;;;6.20;;
10120;SDS011;5100;45.176;5.714;2022-07-23T06:17:43;9.18;;;6.57;;
10120;SDS011;5100;45.176;5.714;2022-07-23T06:20:09;8.20;;;6.18;;
10120;SDS011;5100;45.176;5.714;2022-07-23T06:22:36;6.70;;;6.12;;
10120;SDS011;5100;45.176;5.714;2022-07-23T06:25:03;7.80;;;6.70;;
10120;SDS011;5100;45.176;5.714;2022-07-23T06:27:29;7.80;;;6.40;;
10120;SDS011;5100;45.176;5.714;2022-07-23T06:29:55;9.65;;;6.85;;
10120;SDS011;5100;45.176;5.714;2022-07-23T06:32:21;6.62;;;6.03;;
10120;SDS011;5100;45.176;5.714;2022-07-23T06:34:47;8.90;;;6.80;;
10120;SDS011;5100;45.176;5.714;2022-07-23T06:37:14;8.70;;;6.35;;
10120;SDS011;5100;45.176;5.714;2022-07-23T06:39:41;7.87;;;6.47;;
10120;SDS011;5100;45.176;5.714;2022-07-23T06:42:07;9.43;;;6.50;;
10120;SDS011;5100;45.176;5.714;2022-07-23T06:44:34;6.90;;;6.20;;
10120;SDS011;5100;45.176;5.714;2022-07-23T06:47:00;8.00;;;6.87;;
10120;SDS011;5100;45.176;5.714;2022-07-23T06:49:26;6.97;;;6.28;;
10120;SDS011;5100;45.176;5.714;2022-07-23T06:51:56;8.43;;;6.62;;
10120;SDS011;5100;45.176;5.714;2022-07-23T06:54:23;7.30;;;6.65;;
10120;SDS011;5100;45.176;5.714;2022-07-23T06:56:49;7.60;;;6.90;;
10120;SDS011;5100;45.176;5.714;2022-07-23T06:59:15;7.95;;;6.75;;
10120;SDS011;5100;45.176;5.714;2022-07-23T07:01:42;7.57;;;6.87;;
10120;SDS011;5100;45.176;5.714;2022-07-23T07:04:08;7.72;;;7.03;;
10120;SDS011;5100;45.176;5.714;2022-07-23T07:06:34;7.37;;;6.65;;
10120;SDS011;5100;45.176;5.714;2022-07-23T07:09:00;6.68;;;6.05;;
10120;SDS011;5100;45.176;5.714;2022-07-23T07:11:26;6.87;;;6.37;;
10120;SDS011;5100;45.176;5.714;2022-07-23T07:13:52;8.10;;;6.82;;
10120;SDS011;5100;45.176;5.714;2022-07-23T07:16:18;7.70;;;7.10;;
10120;SDS011;5100;45.176;5.714;2022-07-23T07:18:44;7.35;;;6.25;;
10120;SDS011;5100;45.176;5.714;2022-07-23T07:21:10;7.68;;;6.60;;
10120;SDS011;5100;45.176;5.714;2022-07-23T07:23:36;7.35;;;6.68;;
10120;SDS011;5100;45.176;5.714;2022-07-23T07:26:02;6.87;;;6.30;;
10120;SDS011;5100;45.176;5.714;2022-07-23T07:28:28;8.35;;;6.43;;
10120;SDS011;5100;45.176;5.714;2022-07-23T07:30:54;6.60;;;6.00;;
10120;SDS011;5100;45.176;5.714;2022-07-23T07:33:20;7.32;;;6.60;;
10120;SDS011;5100;45.176;5.714;2022-07-23T07:35:46;7.10;;;6.37;;
10120;SDS011;5100;45.176;5.714;2022-07-23T07:38:12;9.30;;;6.35;;
10120;SDS011;5100;45.176;5.714;2022-07-23T07:40:38;7.30;;;6.60;;
10120;SDS011;5100;45.176;5.714;2022-07-23T07:43:04;7.05;;;6.45;;
10120;SDS011;5100;45.176;5.714;2022-07-23T07:45:31;7.62;;;7.03;;
10120;SDS011;5100;45.176;5.714;2022-07-23T07:47:57;9.13;;;6.80;;
10120;SDS011;5100;45.176;5.714;2022-07-23T07:50:23;7.87;;;7.18;;
10120;SDS011;5100;45.176;5.714;2022-07-23T07:52:50;7.07;;;6.47;;
10120;SDS011;5100;45.176;5.714;2022-07-23T07:55:15;7.00;;;6.47;;
10120;SDS011;5100;45.176;5.714;2022-07-23T07:57:41;7.10;;;6.50;;
10120;SDS011;5100;45.176;5.714;2022-07-23T08:00:09;7.70;;;6.90;;
10120;SDS011;5100;45.176;5.714;2022-07-23T08:02:47;7.43;;;6.68;;
10120;SDS011;5100;45.176;5.714;2022-07-23T08:05:21;7.45;;;6.65;;
10120;SDS011;5100;45.176;5.714;2022-07-23T08:07:52;7.30;;;6.60;;
10120;SDS011;5100;45.176;5.714;2022-07-23T08:10:19;7.00;;;6.40;;
10120;SDS011;5100;45.176;5.714;2022-07-23T08:12:46;7.60;;;6.93;;
10120;SDS011;5100;45.176;5.714;2022-07-23T08:15:15;7.85;;;7.12;;
10120;SDS011;5100;45.176;5.714;2022-07-23T08:17:43;7.50;;;6.80;;
10120;SDS011;5100;45.176;5.714;2022-07-23T08:20:11;8.38;;;7.35;;
10120;SDS011;5100;45.176;5.714;2022-07-23T08:22:44;8.32;;;7.62;;
10120;SDS011;5100;45.176;5.714;2022-07-23T08:25:16;8.88;;;7.97;;
10120;SDS011;5100;45.176;5.714;2022-07-23T08:27:53;7.97;;;7.25;;
10120;SDS011;5100;45.176;5.714;2022-07-23T08:30:20;7.60;;;6.90;;
10120;SDS011;5100;45.176;5.714;2022-07-23T08:32:53;7.45;;;6.32;;
10120;SDS011;5100;45.176;5.714;2022-07-23T08:35:24;7.87;;;7.18;;
10120;SDS011;5100;45.176;5.714;2022-07-23T08:37:53;9.52;;;6.70;;
10120;SDS011;5100;45.176;5.714;2022-07-23T08:40:20;11.00;;;6.80;;
10120;SDS011;5100;45.176;5.714;2022-07-23T08:42:49;10.30;;;7.45;;
10120;SDS011;5100;45.176;5.714;2022-07-23T08:45:17;9.38;;;7.03;;
10120;SDS011;5100;45.176;5.714;2022-07-23T08:47:48;9.05;;;7.22;;
10120;SDS011;5100;45.176;5.714;2022-07-23T08:50:19;8.40;;;7.62;;
10120;SDS011;5100;45.176;5.714;2022-07-23T08:52:47;8.60;;;6.72;;
10120;SDS011;5100;45.176;5.714;2022-07-23T08:55:15;7.65;;;6.30;;
10120;SDS011;5100;45.176;5.714;2022-07-23T08:57:42;8.07;;;7.28;;
10120;SDS011;5100;45.176;5.714;2022-07-23T09:00:09;7.20;;;6.65;;
10120;SDS011;5100;45.176;5.714;2022-07-23T09:02:42;10.15;;;7.10;;
10120;SDS011;5100;45.176;5.714;2022-07-23T09:05:09;10.50;;;7.10;;
10120;SDS011;5100;45.176;5.714;2022-07-23T09:08:21;10.35;;;6.85;;
10120;SDS011;5100;45.176;5.714;2022-07-23T09:11:04;7.22;;;6.15;;
10120;SDS011;5100;45.176;5.714;2022-07-23T09:13:36;7.87;;;6.45;;
10120;SDS011;5100;45.176;5.714;2022-07-23T09:16:08;7.85;;;6.70;;
10120;SDS011;5100;45.176;5.714;2022-07-23T09:18:38;8.52;;;6.85;;
10120;SDS011;5100;45.176;5.714;2022-07-23T09:21:13;9.27;;;6.80;;
10120;SDS011;5100;45.176;5.714;2022-07-23T09:23:45;7.53;;;6.37;;
10120;SDS011;5100;45.176;5.714;2022-07-23T09:28:48;7.95;;;6.32;;
10120;SDS011;5100;45.176;5.714;2022-07-23T09:31:17;7.82;;;7.12;;
10120;SDS011;5100;45.176;5.714;2022-07-23T09:33:43;7.78;;;6.18;;
10120;SDS011;5100;45.176;5.714;2022-07-23T09:36:09;7.82;;;7.03;;
10120;SDS011;5100;45.176;5.714;2022-07-23T09:38:35;7.95;;;7.15;;
10120;SDS011;5100;45.176;5.714;2022-07-23T09:41:15;10.30;;;6.47;;
10120;SDS011;5100;45.176;5.714;2022-07-23T09:43:41;7.28;;;6.53;;
10120;SDS011;5100;45.176;5.714;2022-07-23T09:48:43;8.35;;;7.15;;
10120;SDS011;5100;45.176;5.714;2022-07-23T09:51:09;7.50;;;6.37;;
10120;SDS011;5100;45.176;5.714;2022-07-23T09:53:35;7.12;;;6.15;;
10120;SDS011;5100;45.176;5.714;2022-07-23T09:56:02;6.55;;;5.80;;
10120;SDS011;5100;45.176;5.714;2022-07-23T09:58:28;6.80;;;6.20;;
10120;SDS011;5100;45.176;5.714;2022-07-23T10:00:55;6.43;;;5.82;;
10120;SDS011;5100;45.176;5.714;2022-07-23T10:03:24;6.93;;;6.10;;
10120;SDS011;5100;45.176;5.714;2022-07-23T10:05:53;6.25;;;5.65;;
10120;SDS011;5100;45.176;5.714;2022-07-23T10:08:21;8.82;;;6.05;;
10120;SDS011;5100;45.176;5.714;2022-07-23T10:10:51;6.62;;;5.97;;
10120;SDS011;5100;45.176;5.714;2022-07-23T10:13:19;6.57;;;6.03;;
10120;SDS011;5100;45.176;5.714;2022-07-23T10:16:04;6.60;;;6.00;;
10120;SDS011;5100;45.176;5.714;2022-07-23T10:18:30;7.22;;;6.45;;
10120;SDS011;5100;45.176;5.714;2022-07-23T10:20:56;6.60;;;5.70;;
10120;SDS011;5100;45.176;5.714;2022-07-23T10:23:27;6.82;;;6.07;;
10120;SDS011;5100;45.176;5.714;2022-07-23T10:28:53;7.95;;;6.22;;
10120;SDS011;5100;45.176;5.714;2022-07-23T10:34:21;7.78;;;6.32;;
10120;SDS011;5100;45.176;5.714;2022-07-23T10:36:58;5.95;;;5.37;;
10120;SDS011;5100;45.176;5.714;2022-07-23T10:39:33;6.28;;;5.12;;
10120;SDS011;5100;45.176;5.714;2022-07-23T10:42:16;5.95;;;5.35;;
10120;SDS011;5100;45.176;5.714;2022-07-23T10:44:44;6.12;;;5.62;;
10120;SDS011;5100;45.176;5.714;2022-07-23T10:47:13;6.90;;;6.20;;
10120;SDS011;5100;45.176;5.714;2022-07-23T10:57:58;6.03;;;5.53;;
10120;SDS011;5100;45.176;5.714;2022-07-23T11:00:28;6.37;;;5.87;;
10120;SDS011;5100;45.176;5.714;2022-07-23T11:02:56;6.53;;;5.90;;
10120;SDS011;5100;45.176;5.714;2022-07-23T11:05:38;6.50;;;5.93;;
10120;SDS011;5100;45.176;5.714;2022-07-23T11:08:10;6.30;;;5.70;;
10120;SDS011;5100;45.176;5.714;2022-07-23T11:10:41;6.20;;;5.70;;
10120;SDS011;5100;45.176;5.714;2022-07-23T11:23:59;7.22;;;5.50;;
10120;SDS011;5100;45.176;5.714;2022-07-23T11:31:54;5.93;;;5.43;;
10120;SDS011;5100;45.176;5.714;2022-07-23T11:34:24;5.97;;;5.47;;
10120;SDS011;5100;45.176;5.714;2022-07-23T11:37:08;6.55;;;5.70;;
10120;SDS011;5100;45.176;5.714;2022-07-23T11:39:38;7.28;;;5.78;;
10120;SDS011;5100;45.176;5.714;2022-07-23T11:42:05;6.72;;;5.30;;
10120;SDS011;5100;45.176;5.714;2022-07-23T11:44:36;6.30;;;5.45;;
10120;SDS011;5100;45.176;5.714;2022-07-23T11:47:13;6.55;;;5.00;;
10120;SDS011;5100;45.176;5.714;2022-07-23T11:49:43;6.03;;;5.50;;
10120;SDS011;5100;45.176;5.714;2022-07-23T11:52:21;5.80;;;5.18;;
10120;SDS011;5100;45.176;5.714;2022-07-23T11:57:18;5.35;;;4.95;;
10120;SDS011;5100;45.176;5.714;2022-07-23T11:59:46;7.20;;;5.68;;
10120;SDS011;5100;45.176;5.714;2022-07-23T12:02:14;6.28;;;5.40;;
10120;SDS011;5100;45.176;5.714;2022-07-23T12:04:42;5.32;;;4.90;;
10120;SDS011;5100;45.176;5.714;2022-07-23T12:09:56;7.93;;;5.18;;
10120;SDS011;5100;45.176;5.714;2022-07-23T12:12:26;6.25;;;5.43;;
10120;SDS011;5100;45.176;5.714;2022-07-23T12:14:56;5.80;;;5.32;;
10120;SDS011;5100;45.176;5.714;2022-07-23T12:17:28;13.80;;;5.80;;
10120;SDS011;5100;45.176;5.714;2022-07-23T12:19:59;8.73;;;5.50;;
10120;SDS011;5100;45.176;5.714;2022-07-23T12:22:34;7.05;;;5.82;;
10120;SDS011;5100;45.176;5.714;2022-07-23T12:25:06;6.87;;;5.28;;
10120;SDS011;5100;45.176;5.714;2022-07-23T12:27:34;9.85;;;5.95;;
10120;SDS011;5100;45.176;5.714;2022-07-23T12:32:47;5.82;;;5.32;;
10120;SDS011;5100;45.176;5.714;2022-07-23T12:35:15;5.32;;;4.80;;
10120;SDS011;5100;45.176;5.714;2022-07-23T12:37:42;5.68;;;5.12;;
10120;SDS011;5100;45.176;5.714;2022-07-23T12:40:26;6.68;;;5.78;;
10120;SDS011;5100;45.176;5.714;2022-07-23T12:43:06;5.60;;;5.10;;
10120;SDS011;5100;45.176;5.714;2022-07-23T12:45:43;5.62;;;5.03;;
10120;SDS011;5100;45.176;5.714;2022-07-23T12:48:21;6.50;;;5.90;;
10120;SDS011;5100;45.176;5.714;2022-07-23T12:53:18;7.43;;;5.00;;
10120;SDS011;5100;45.176;5.714;2022-07-23T12:55:46;6.37;;;5.60;;
10120;SDS011;5100;45.176;5.714;2022-07-23T12:58:18;6.25;;;4.95;;
10120;SDS011;5100;45.176;5.714;2022-07-23T13:00:55;6.53;;;5.25;;
10120;SDS011;5100;45.176;5.714;2022-07-23T13:03:26;6.47;;;5.87;;
10120;SDS011;5100;45.176;5.714;2022-07-23T13:05:52;6.68;;;6.00;;
10120;SDS011;5100;45.176;5.714;2022-07-23T13:08:18;6.60;;;6.10;;
10120;SDS011;5100;45.176;5.714;2022-07-23T13:10:45;6.45;;;5.93;;
10120;SDS011;5100;45.176;5.714;2022-07-23T13:13:14;6.22;;;5.62;;
10120;SDS011;5100;45.176;5.714;2022-07-23T13:15:42;6.10;;;5.60;;
10120;SDS011;5100;45.176;5.714;2022-07-23T13:18:09;7.97;;;6.22;;
10120;SDS011;5100;45.176;5.714;2022-07-23T13:20:35;9.65;;;6.30;;
10120;SDS011;5100;45.176;5.714;2022-07-23T13:23:01;6.65;;;6.05;;
10120;SDS011;5100;45.176;5.714;2022-07-23T13:25:28;6.80;;;6.15;;
10120;SDS011;5100;45.176;5.714;2022-07-23T13:27:54;8.27;;;5.43;;
10120;SDS011;5100;45.176;5.714;2022-07-23T13:30:19;6.10;;;5.28;;
10120;SDS011;5100;45.176;5.714;2022-07-23T13:32:47;5.20;;;4.70;;
10120;SDS011;5100;45.176;5.714;2022-07-23T13:35:14;8.20;;;5.53;;
10120;SDS011;5100;45.176;5.714;2022-07-23T13:37:40;5.35;;;4.95;;
10120;SDS011;5100;45.176;5.714;2022-07-23T13:40:06;7.43;;;5.82;;
10120;SDS011;5100;45.176;5.714;2022-07-23T13:42:33;5.82;;;5.12;;
10120;SDS011;5100;45.176;5.714;2022-07-23T13:44:59;5.93;;;5.43;;
10120;SDS011;5100;45.176;5.714;2022-07-23T13:47:25;5.57;;;5.18;;
10120;SDS011;5100;45.176;5.714;2022-07-23T13:49:51;6.20;;;5.70;;
10120;SDS011;5100;45.176;5.714;2022-07-23T13:52:17;5.57;;;5.07;;
10120;SDS011;5100;45.176;5.714;2022-07-23T13:54:43;6.25;;;5.65;;
10120;SDS011;5100;45.176;5.714;2022-07-23T13:57:09;12.90;;;5.95;;
10120;SDS011;5100;45.176;5.714;2022-07-23T13:59:35;7.12;;;5.60;;
10120;SDS011;5100;45.176;5.714;2022-07-23T14:02:02;6.45;;;5.57;;
10120;SDS011;5100;45.176;5.714;2022-07-23T14:04:29;5.45;;;4.95;;
10120;SDS011;5100;45.176;5.714;2022-07-23T14:06:55;7.85;;;5.70;;
10120;SDS011;5100;45.176;5.714;2022-07-23T14:09:22;6.45;;;5.85;;
10120;SDS011;5100;45.176;5.714;2022-07-23T14:11:48;6.93;;;5.22;;
10120;SDS011;5100;45.176;5.714;2022-07-23T14:14:16;6.10;;;5.53;;
10120;SDS011;5100;45.176;5.714;2022-07-23T14:16:42;7.50;;;5.50;;
10120;SDS011;5100;45.176;5.714;2022-07-23T14:19:09;5.82;;;5.22;;
10120;SDS011;5100;45.176;5.714;2022-07-23T14:21:36;5.43;;;4.93;;
10120;SDS011;5100;45.176;5.714;2022-07-23T14:24:02;6.57;;;5.45;;
10120;SDS011;5100;45.176;5.714;2022-07-23T14:26:29;5.90;;;5.40;;
10120;SDS011;5100;45.176;5.714;2022-07-23T14:28:55;5.87;;;5.35;;
10120;SDS011;5100;45.176;5.714;2022-07-23T14:31:21;5.50;;;5.10;;
10120;SDS011;5100;45.176;5.714;2022-07-23T14:33:48;5.80;;;5.30;;
10120;SDS011;5100;45.176;5.714;2022-07-23T14:36:14;7.60;;;4.90;;
10120;SDS011;5100;45.176;5.714;2022-07-23T14:38:40;5.47;;;5.03;;
10120;SDS011;5100;45.176;5.714;2022-07-23T14:41:07;5.93;;;5.30;;
10120;SDS011;5100;45.176;5.714;2022-07-23T14:43:33;6.20;;;5.60;;
10120;SDS011;5100;45.176;5.714;2022-07-23T14:45:59;8.40;;;5.60;;
10120;SDS011;5100;45.176;5.714;2022-07-23T14:48:25;6.00;;;5.50;;
10120;SDS011;5100;45.176;5.714;2022-07-23T14:50:51;6.22;;;5.62;;
10120;SDS011;5100;45.176;5.714;2022-07-23T14:53:17;5.95;;;5.03;;
10120;SDS011;5100;45.176;5.714;2022-07-23T14:55:43;5.78;;;5.28;;
10120;SDS011;5100;45.176;5.714;2022-07-23T14:58:09;5.85;;;4.78;;
10120;SDS011;5100;45.176;5.714;2022-07-23T15:00:35;6.82;;;5.53;;
10120;SDS011;5100;45.176;5.714;2022-07-23T15:03:02;6.75;;;5.80;;
10120;SDS011;5100;45.176;5.714;2022-07-23T15:05:28;6.03;;;5.53;;
10120;SDS011;5100;45.176;5.714;2022-07-23T15:07:54;7.65;;;5.62;;
10120;SDS011;5100;45.176;5.714;2022-07-23T15:10:21;8.25;;;5.60;;
10120;SDS011;5100;45.176;5.714;2022-07-23T15:12:47;6.30;;;5.70;;
10120;SDS011;5100;45.176;5.714;2022-07-23T15:15:13;10.32;;;6.10;;
10120;SDS011;5100;45.176;5.714;2022-07-23T15:17:39;6.57;;;5.43;;
10120;SDS011;5100;45.176;5.714;2022-07-23T15:20:05;5.45;;;4.82;;
10120;SDS011;5100;45.176;5.714;2022-07-23T15:22:32;6.15;;;5.65;;
10120;SDS011;5100;45.176;5.714;2022-07-23T15:24:58;5.53;;;5.00;;
10120;SDS011;5100;45.176;5.714;2022-07-23T15:27:24;6.35;;;5.75;;
10120;SDS011;5100;45.176;5.714;2022-07-23T15:29:50;6.28;;;5.28;;
10120;SDS011;5100;45.176;5.714;2022-07-23T15:32:16;5.28;;;4.80;;
10120;SDS011;5100;45.176;5.714;2022-07-23T15:34:42;6.65;;;6.05;;
10120;SDS011;5100;45.176;5.714;2022-07-23T15:37:08;5.47;;;4.97;;
10120;SDS011;5100;45.176;5.714;2022-07-23T15:39:34;5.97;;;4.75;;
10120;SDS011;5100;45.176;5.714;2022-07-23T15:42:00;7.32;;;5.20;;
10120;SDS011;5100;45.176;5.714;2022-07-23T15:44:27;6.55;;;5.25;;
10120;SDS011;5100;45.176;5.714;2022-07-23T15:46:53;5.57;;;5.07;;
10120;SDS011;5100;45.176;5.714;2022-07-23T15:49:21;7.47;;;5.80;;
10120;SDS011;5100;45.176;5.714;2022-07-23T15:51:47;6.47;;;5.30;;